sensor_id;sensor_type;location;lat;lon;timestamp;temperature;humidity
14359;DHT22;7263;49.418;11.064;2023-12-20T00:01:47;5.60;99.90
14359;DHT22;7263;49.418;11.064;2023-12-20T00:04:20;5.50;99.90
14359;DHT22;7263;49.418;11.064;2023-12-20T00:06:47;5.50;99.90
14359;DHT22;7263;49.418;11.064;2023-12-20T00:09:17;5.50;99.90
14359;DHT22;7263;49.418;11.064;2023-12-20T00:11:44;5.50;99.90
14359;DHT22;7263;49.418;11.064;2023-12-20T00:14:12;5.50;99.90
14359;DHT22;7263;49.418;11.064;2023-12-20T00:16:44;5.50;99.90
14359;DHT22;7263;49.418;11.064;2023-12-20T00:19:15;5.50;99.90
14359;DHT22;7263;49.418;11.064;2023-12-20T00:21:48;5.50;99.90
14359;DHT22;7263;49.418;11.064;2023-12-20T00:24:15;5.50;99.90
14359;DHT22;7263;49.418;11.064;2023-12-20T00:26:42;5.50;99.90
14359;DHT22;7263;49.418;11.064;2023-12-20T00:29:11;5.50;99.90
14359;DHT22;7263;49.418;11.064;2023-12-20T00:31:46;5.50;99.90
14359;DHT22;7263;49.418;11.064;2023-12-20T00:34:17;5.50;99.90
14359;DHT22;7263;49.418;11.064;2023-12-20T00:36:44;5.50;99.90
14359;DHT22;7263;49.418;11.064;2023-12-20T00:39:14;5.50;99.90
14359;DHT22;7263;49.418;11.064;2023-12-20T00:41:48;5.50;99.90
14359;DHT22;7263;49.418;11.064;2023-12-20T00:44:15;5.50;99.90
14359;DHT22;7263;49.418;11.064;2023-12-20T00:46:42;5.50;99.90
14359;DHT22;7263;49.418;11.064;2023-12-20T00:49:12;5.50;99.90
14359;DHT22;7263;49.418;11.064;2023-12-20T00:51:40;5.50;99.90
14359;DHT22;7263;49.418;11.064;2023-12-20T00:54:07;5.50;99.90
14359;DHT22;7263;49.418;11.064;2023-12-20T00:56:34;5.50;99.90
14359;DHT22;7263;49.418;11.064;2023-12-20T00:59:01;5.50;99.90
14359;DHT22;7263;49.418;11.064;2023-12-20T01:01:31;5.50;99.90
14359;DHT22;7263;49.418;11.064;2023-12-20T01:03:58;5.50;99.90
14359;DHT22;7263;49.418;11.064;2023-12-20T01:06:25;5.50;99.90
14359;DHT22;7263;49.418;11.064;2023-12-20T01:08:55;5.50;99.90
14359;DHT22;7263;49.418;11.064;2023-12-20T01:11:22;5.50;99.90
14359;DHT22;7263;49.418;11.064;2023-12-20T01:13:51;5.50;99.90
14359;DHT22;7263;49.418;11.064;2023-12-20T01:16:18;5.50;99.90
14359;DHT22;7263;49.418;11.064;2023-12-20T01:18:48;5.50;99.90
14359;DHT22;7263;49.418;11.064;2023-12-20T01:21:16;5.50;99.90
14359;DHT22;7263;49.418;11.064;2023-12-20T01:23:42;5.50;99.90
14359;DHT22;7263;49.418;11.064;2023-12-20T01:26:20;5.50;99.90
14359;DHT22;7263;49.418;11.064;2023-12-20T01:28:47;5.50;99.90
14359;DHT22;7263;49.418;11.064;2023-12-20T01:31:16;5.50;99.90
14359;DHT22;7263;49.418;11.064;2023-12-20T01:33:42;5.50;99.90
14359;DHT22;7263;49.418;11.064;2023-12-20T01:36:15;5.40;99.90
14359;DHT22;7263;49.418;11.064;2023-12-20T01:38:42;5.40;99.90
14359;DHT22;7263;49.418;11.064;2023-12-20T01:41:12;5.40;99.90
14359;DHT22;7263;49.418;11.064;2023-12-20T01:43:43;5.40;99.90
14359;DHT22;7263;49.418;11.064;2023-12-20T01:46:16;5.40;99.90
14359;DHT22;7263;49.418;11.064;2023-12-20T01:48:44;5.40;99.90
14359;DHT22;7263;49.418;11.064;2023-12-20T01:51:19;5.40;99.90
14359;DHT22;7263;49.418;11.064;2023-12-20T01:53:49;5.40;99.90
14359;DHT22;7263;49.418;11.064;2023-12-20T01:56:20;5.40;99.90
14359;DHT22;7263;49.418;11.064;2023-12-20T01:58:47;5.40;99.90
14359;DHT22;7263;49.418;11.064;2023-12-20T02:01:20;5.30;99.90
14359;DHT22;7263;49.418;11.064;2023-12-20T02:03:50;5.30;99.90
14359;DHT22;7263;49.418;11.064;2023-12-20T02:06:18;5.40;99.90
14359;DHT22;7263;49.418;11.064;2023-12-20T02:08:47;5.30;99.90
14359;DHT22;7263;49.418;11.064;2023-12-20T02:11:23;5.30;99.90
14359;DHT22;7263;49.418;11.064;2023-12-20T02:17:15;5.30;99.90
14359;DHT22;7263;49.418;11.064;2023-12-20T02:19:45;5.20;99.90
14359;DHT22;7263;49.418;11.064;2023-12-20T02:22:17;5.20;99.90
14359;DHT22;7263;49.418;11.064;2023-12-20T02:24:46;5.20;99.90
14359;DHT22;7263;49.418;11.064;2023-12-20T02:27:22;5.20;99.90
14359;DHT22;7263;49.418;11.064;2023-12-20T02:29:57;5.20;99.90
14359;DHT22;7263;49.418;11.064;2023-12-20T02:32:25;5.10;99.90
14359;DHT22;7263;49.418;11.064;2023-12-20T02:35:03;5.10;99.90
14359;DHT22;7263;49.418;11.064;2023-12-20T02:37:33;5.10;99.90
14359;DHT22;7263;49.418;11.064;2023-12-20T02:40:03;5.00;99.90
14359;DHT22;7263;49.418;11.064;2023-12-20T02:42:33;5.10;99.90
14359;DHT22;7263;49.418;11.064;2023-12-20T02:45:00;5.00;99.90
14359;DHT22;7263;49.418;11.064;2023-12-20T02:47:30;4.90;99.90
14359;DHT22;7263;49.418;11.064;2023-12-20T02:49:57;4.80;99.90
14359;DHT22;7263;49.418;11.064;2023-12-20T02:52:27;4.80;99.90
14359;DHT22;7263;49.418;11.064;2023-12-20T02:55:06;4.80;99.90
14359;DHT22;7263;49.418;11.064;2023-12-20T02:57:33;4.70;99.90
14359;DHT22;7263;49.418;11.064;2023-12-20T03:00:07;4.70;99.90
14359;DHT22;7263;49.418;11.064;2023-12-20T03:02:34;4.70;99.90
14359;DHT22;7263;49.418;11.064;2023-12-20T03:05:05;4.70;99.90
14359;DHT22;7263;49.418;11.064;2023-12-20T03:07:37;4.60;99.90
14359;DHT22;7263;49.418;11.064;2023-12-20T03:10:11;4.60;99.90
14359;DHT22;7263;49.418;11.064;2023-12-20T03:12:38;4.50;99.90
14359;DHT22;7263;49.418;11.064;2023-12-20T03:15:05;4.50;99.90
14359;DHT22;7263;49.418;11.064;2023-12-20T03:17:32;4.50;99.90
14359;DHT22;7263;49.418;11.064;2023-12-20T03:19:58;4.40;99.90
14359;DHT22;7263;49.418;11.064;2023-12-20T03:22:28;4.40;99.90
14359;DHT22;7263;49.418;11.064;2023-12-20T03:24:54;4.40;99.90
14359;DHT22;7263;49.418;11.064;2023-12-20T03:27:25;4.40;99.90
14359;DHT22;7263;49.418;11.064;2023-12-20T03:29:52;4.40;99.90
14359;DHT22;7263;49.418;11.064;2023-12-20T03:32:28;4.40;99.90
14359;DHT22;7263;49.418;11.064;2023-12-20T03:34:58;4.30;99.90
14359;DHT22;7263;49.418;11.064;2023-12-20T03:37:25;4.30;99.90
14359;DHT22;7263;49.418;11.064;2023-12-20T03:39:53;4.30;99.90
14359;DHT22;7263;49.418;11.064;2023-12-20T03:42:35;4.30;99.90
14359;DHT22;7263;49.418;11.064;2023-12-20T03:45:03;4.30;99.90
14359;DHT22;7263;49.418;11.064;2023-12-20T03:47:36;4.30;99.90
14359;DHT22;7263;49.418;11.064;2023-12-20T03:50:09;4.20;99.90
14359;DHT22;7263;49.418;11.064;2023-12-20T03:52:48;4.20;99.90
14359;DHT22;7263;49.418;11.064;2023-12-20T03:55:17;4.20;99.90
14359;DHT22;7263;49.418;11.064;2023-12-20T03:57:48;4.20;99.90
14359;DHT22;7263;49.418;11.064;2023-12-20T04:00:18;4.20;99.90
14359;DHT22;7263;49.418;11.064;2023-12-20T04:02:45;4.20;99.90
14359;DHT22;7263;49.418;11.064;2023-12-20T04:05:14;4.20;99.90
14359;DHT22;7263;49.418;11.064;2023-12-20T04:07:40;4.20;99.90
14359;DHT22;7263;49.418;11.064;2023-12-20T04:10:10;4.20;99.90
14359;DHT22;7263;49.418;11.064;2023-12-20T04:12:46;4.20;99.90
14359;DHT22;7263;49.418;11.064;2023-12-20T04:15:16;4.20;99.90
14359;DHT22;7263;49.418;11.064;2023-12-20T04:17:46;4.20;99.90
14359;DHT22;7263;49.418;11.064;2023-12-20T04:20:16;4.20;99.90
14359;DHT22;7263;49.418;11.064;2023-12-20T04:22:43;4.20;99.90
14359;DHT22;7263;49.418;11.064;2023-12-20T04:25:09;4.20;99.90
14359;DHT22;7263;49.418;11.064;2023-12-20T04:27:39;4.20;99.90
14359;DHT22;7263;49.418;11.064;2023-12-20T04:30:07;4.20;99.90
14359;DHT22;7263;49.418;11.064;2023-12-20T04:32:53;4.20;99.90
14359;DHT22;7263;49.418;11.064;2023-12-20T04:35:20;4.20;99.90
14359;DHT22;7263;49.418;11.064;2023-12-20T04:37:47;4.20;99.90
14359;DHT22;7263;49.418;11.064;2023-12-20T04:40:18;4.10;99.90
14359;DHT22;7263;49.418;11.064;2023-12-20T04:42:47;4.20;99.90
14359;DHT22;7263;49.418;11.064;2023-12-20T04:45:20;4.10;99.90
14359;DHT22;7263;49.418;11.064;2023-12-20T04:47:51;4.10;99.90
14359;DHT22;7263;49.418;11.064;2023-12-20T04:50:20;4.10;99.90
14359;DHT22;7263;49.418;11.064;2023-12-20T04:52:51;4.10;99.90
14359;DHT22;7263;49.418;11.064;2023-12-20T04:55:18;4.10;99.90
14359;DHT22;7263;49.418;11.064;2023-12-20T04:57:54;4.10;99.90
14359;DHT22;7263;49.418;11.064;2023-12-20T05:00:23;4.10;99.90
14359;DHT22;7263;49.418;11.064;2023-12-20T05:02:55;4.10;99.90
14359;DHT22;7263;49.418;11.064;2023-12-20T05:05:21;4.20;99.90
14359;DHT22;7263;49.418;11.064;2023-12-20T05:07:49;4.10;99.90
14359;DHT22;7263;49.418;11.064;2023-12-20T05:10:18;4.20;99.90
14359;DHT22;7263;49.418;11.064;2023-12-20T05:12:55;4.10;99.90
14359;DHT22;7263;49.418;11.064;2023-12-20T05:15:25;4.10;99.90
14359;DHT22;7263;49.418;11.064;2023-12-20T05:17:56;4.20;99.90
14359;DHT22;7263;49.418;11.064;2023-12-20T05:20:23;4.10;99.90
14359;DHT22;7263;49.418;11.064;2023-12-20T05:23:04;4.10;99.90
14359;DHT22;7263;49.418;11.064;2023-12-20T05:25:30;4.10;99.90
14359;DHT22;7263;49.418;11.064;2023-12-20T05:28:05;4.10;99.90
14359;DHT22;7263;49.418;11.064;2023-12-20T05:30:34;4.10;99.90
14359;DHT22;7263;49.418;11.064;2023-12-20T05:33:02;4.10;99.90
14359;DHT22;7263;49.418;11.064;2023-12-20T05:35:29;4.10;99.90
14359;DHT22;7263;49.418;11.064;2023-12-20T05:37:56;4.10;99.90
14359;DHT22;7263;49.418;11.064;2023-12-20T05:40:23;4.10;99.90
14359;DHT22;7263;49.418;11.064;2023-12-20T05:42:52;4.10;99.90
14359;DHT22;7263;49.418;11.064;2023-12-20T05:45:19;4.10;99.90
14359;DHT22;7263;49.418;11.064;2023-12-20T05:47:51;4.10;99.90
14359;DHT22;7263;49.418;11.064;2023-12-20T05:50:20;4.00;99.90
14359;DHT22;7263;49.418;11.064;2023-12-20T05:52:50;4.10;99.90
14359;DHT22;7263;49.418;11.064;2023-12-20T05:55:20;4.10;99.90
14359;DHT22;7263;49.418;11.064;2023-12-20T05:57:48;4.10;99.90
14359;DHT22;7263;49.418;11.064;2023-12-20T06:00:16;4.10;99.90
14359;DHT22;7263;49.418;11.064;2023-12-20T06:02:43;4.10;99.90
14359;DHT22;7263;49.418;11.064;2023-12-20T06:05:16;4.10;99.90
14359;DHT22;7263;49.418;11.064;2023-12-20T06:07:50;4.10;99.90
14359;DHT22;7263;49.418;11.064;2023-12-20T06:10:22;4.10;99.90
14359;DHT22;7263;49.418;11.064;2023-12-20T06:12:49;4.10;99.90
14359;DHT22;7263;49.418;11.064;2023-12-20T06:15:22;4.10;99.90
14359;DHT22;7263;49.418;11.064;2023-12-20T06:17:58;4.10;99.90
14359;DHT22;7263;49.418;11.064;2023-12-20T06:20:27;4.10;99.90
14359;DHT22;7263;49.418;11.064;2023-12-20T06:22:56;4.10;99.90
14359;DHT22;7263;49.418;11.064;2023-12-20T06:25:29;4.10;99.90
14359;DHT22;7263;49.418;11.064;2023-12-20T06:28:02;4.20;99.90
14359;DHT22;7263;49.418;11.064;2023-12-20T06:30:34;4.20;99.90
14359;DHT22;7263;49.418;11.064;2023-12-20T06:33:03;4.20;99.90
14359;DHT22;7263;49.418;11.064;2023-12-20T06:35:32;4.20;99.90
14359;DHT22;7263;49.418;11.064;2023-12-20T06:38:08;4.10;99.90
14359;DHT22;7263;49.418;11.064;2023-12-20T06:40:35;4.20;99.90
14359;DHT22;7263;49.418;11.064;2023-12-20T06:43:01;4.20;99.90
14359;DHT22;7263;49.418;11.064;2023-12-20T06:45:28;4.20;99.90
14359;DHT22;7263;49.418;11.064;2023-12-20T06:48:01;4.20;99.90
14359;DHT22;7263;49.418;11.064;2023-12-20T06:50:28;4.20;99.90
14359;DHT22;7263;49.418;11.064;2023-12-20T06:53:04;4.20;99.90
14359;DHT22;7263;49.418;11.064;2023-12-20T06:55:35;4.30;99.90
14359;DHT22;7263;49.418;11.064;2023-12-20T06:58:12;4.20;99.90
14359;DHT22;7263;49.418;11.064;2023-12-20T07:00:48;4.30;99.90
14359;DHT22;7263;49.418;11.064;2023-12-20T07:03:16;4.20;99.90
14359;DHT22;7263;49.418;11.064;2023-12-20T07:05:43;4.30;99.90
14359;DHT22;7263;49.418;11.064;2023-12-20T07:08:13;4.30;99.90
14359;DHT22;7263;49.418;11.064;2023-12-20T07:10:47;4.30;99.90
14359;DHT22;7263;49.418;11.064;2023-12-20T07:13:24;4.30;99.90
14359;DHT22;7263;49.418;11.064;2023-12-20T07:15:56;4.30;99.90
14359;DHT22;7263;49.418;11.064;2023-12-20T07:18:23;4.30;99.90
14359;DHT22;7263;49.418;11.064;2023-12-20T07:20:50;4.30;99.90
14359;DHT22;7263;49.418;11.064;2023-12-20T07:23:32;4.30;99.90
14359;DHT22;7263;49.418;11.064;2023-12-20T07:26:05;4.30;99.90
14359;DHT22;7263;49.418;11.064;2023-12-20T07:28:32;4.30;99.90
14359;DHT22;7263;49.418;11.064;2023-12-20T07:30:59;4.40;99.90
14359;DHT22;7263;49.418;11.064;2023-12-20T07:33:26;4.50;99.90
14359;DHT22;7263;49.418;11.064;2023-12-20T07:35:53;4.40;99.90
14359;DHT22;7263;49.418;11.064;2023-12-20T07:38:22;4.50;99.90
14359;DHT22;7263;49.418;11.064;2023-12-20T07:40:52;4.40;99.90
14359;DHT22;7263;49.418;11.064;2023-12-20T07:43:19;4.40;99.90
14359;DHT22;7263;49.418;11.064;2023-12-20T07:45:45;4.50;99.90
14359;DHT22;7263;49.418;11.064;2023-12-20T07:48:22;4.50;99.90
14359;DHT22;7263;49.418;11.064;2023-12-20T07:50:50;2.40;99.90
14359;DHT22;7263;49.418;11.064;2023-12-20T07:53:18;4.50;99.90
14359;DHT22;7263;49.418;11.064;2023-12-20T07:55:45;4.50;99.90
14359;DHT22;7263;49.418;11.064;2023-12-20T07:58:15;4.50;99.90
14359;DHT22;7263;49.418;11.064;2023-12-20T08:00:42;4.50;99.90
14359;DHT22;7263;49.418;11.064;2023-12-20T08:03:09;4.60;99.90
14359;DHT22;7263;49.418;11.064;2023-12-20T08:05:37;4.60;99.90
14359;DHT22;7263;49.418;11.064;2023-12-20T08:08:08;5.30;99.90
14359;DHT22;7263;49.418;11.064;2023-12-20T08:10:37;4.60;99.90
14359;DHT22;7263;49.418;11.064;2023-12-20T08:13:09;4.70;99.90
14359;DHT22;7263;49.418;11.064;2023-12-20T08:15:42;4.70;99.90
14359;DHT22;7263;49.418;11.064;2023-12-20T08:18:12;4.70;99.90
14359;DHT22;7263;49.418;11.064;2023-12-20T08:20:46;4.70;99.90
14359;DHT22;7263;49.418;11.064;2023-12-20T08:23:28;4.80;99.90
14359;DHT22;7263;49.418;11.064;2023-12-20T08:25:55;4.80;99.90
14359;DHT22;7263;49.418;11.064;2023-12-20T08:28:24;5.00;99.90
14359;DHT22;7263;49.418;11.064;2023-12-20T08:31:01;5.00;99.90
14359;DHT22;7263;49.418;11.064;2023-12-20T08:33:27;5.10;99.90
14359;DHT22;7263;49.418;11.064;2023-12-20T08:35:56;5.20;99.90
14359;DHT22;7263;49.418;11.064;2023-12-20T08:38:23;4.50;99.90
14359;DHT22;7263;49.418;11.064;2023-12-20T08:40:52;5.30;99.90
14359;DHT22;7263;49.418;11.064;2023-12-20T08:43:21;5.30;99.90
14359;DHT22;7263;49.418;11.064;2023-12-20T08:45:58;5.30;99.90
14359;DHT22;7263;49.418;11.064;2023-12-20T08:48:25;5.30;99.90
14359;DHT22;7263;49.418;11.064;2023-12-20T08:51:00;5.20;99.90
14359;DHT22;7263;49.418;11.064;2023-12-20T08:53:29;5.20;99.90
14359;DHT22;7263;49.418;11.064;2023-12-20T08:56:03;5.10;99.90
14359;DHT22;7263;49.418;11.064;2023-12-20T08:58:30;5.10;99.90
14359;DHT22;7263;49.418;11.064;2023-12-20T09:01:03;5.00;99.90
14359;DHT22;7263;49.418;11.064;2023-12-20T09:03:32;5.00;99.90
14359;DHT22;7263;49.418;11.064;2023-12-20T09:06:02;5.00;99.90
14359;DHT22;7263;49.418;11.064;2023-12-20T09:08:31;5.10;99.90
14359;DHT22;7263;49.418;11.064;2023-12-20T09:10:58;5.00;99.90
14359;DHT22;7263;49.418;11.064;2023-12-20T09:13:29;5.10;99.90
14359;DHT22;7263;49.418;11.064;2023-12-20T09:16:02;5.00;99.90
14359;DHT22;7263;49.418;11.064;2023-12-20T09:18:29;5.00;99.90
14359;DHT22;7263;49.418;11.064;2023-12-20T09:20:59;5.10;99.90
14359;DHT22;7263;49.418;11.064;2023-12-20T09:23:27;5.10;99.90
14359;DHT22;7263;49.418;11.064;2023-12-20T09:26:01;5.00;99.90
14359;DHT22;7263;49.418;11.064;2023-12-20T09:28:28;5.10;99.90
14359;DHT22;7263;49.418;11.064;2023-12-20T09:30:57;5.70;99.90
14359;DHT22;7263;49.418;11.064;2023-12-20T09:33:25;6.30;99.90
14359;DHT22;7263;49.418;11.064;2023-12-20T09:35:54;6.90;99.90
14359;DHT22;7263;49.418;11.064;2023-12-20T09:38:26;7.30;99.90
14359;DHT22;7263;49.418;11.064;2023-12-20T09:40:58;7.60;99.90
14359;DHT22;7263;49.418;11.064;2023-12-20T09:43:29;7.90;99.90
14359;DHT22;7263;49.418;11.064;2023-12-20T09:46:05;8.20;99.90
14359;DHT22;7263;49.418;11.064;2023-12-20T09:48:35;8.30;99.90
14359;DHT22;7263;49.418;11.064;2023-12-20T09:51:11;8.60;99.90
14359;DHT22;7263;49.418;11.064;2023-12-20T09:53:41;8.90;99.90
14359;DHT22;7263;49.418;11.064;2023-12-20T09:56:12;9.10;99.90
14359;DHT22;7263;49.418;11.064;2023-12-20T09:58:45;9.30;99.90
14359;DHT22;7263;49.418;11.064;2023-12-20T10:01:17;9.40;99.90
14359;DHT22;7263;49.418;11.064;2023-12-20T10:03:46;9.50;99.90
14359;DHT22;7263;49.418;11.064;2023-12-20T10:06:19;9.20;99.90
14359;DHT22;7263;49.418;11.064;2023-12-20T10:08:49;8.70;99.90
14359;DHT22;7263;49.418;11.064;2023-12-20T10:11:15;8.50;99.90
14359;DHT22;7263;49.418;11.064;2023-12-20T10:13:47;8.40;99.90
14359;DHT22;7263;49.418;11.064;2023-12-20T10:16:14;8.30;99.90
14359;DHT22;7263;49.418;11.064;2023-12-20T10:18:52;8.10;99.90
14359;DHT22;7263;49.418;11.064;2023-12-20T10:21:22;7.70;99.90
14359;DHT22;7263;49.418;11.064;2023-12-20T10:23:50;7.40;99.90
14359;DHT22;7263;49.418;11.064;2023-12-20T10:26:20;7.20;99.90
14359;DHT22;7263;49.418;11.064;2023-12-20T10:28:50;7.00;99.90
14359;DHT22;7263;49.418;11.064;2023-12-20T10:31:26;7.00;99.90
14359;DHT22;7263;49.418;11.064;2023-12-20T10:34:00;6.80;99.90
14359;DHT22;7263;49.418;11.064;2023-12-20T10:36:28;6.70;99.90
14359;DHT22;7263;49.418;11.064;2023-12-20T10:38:58;6.70;99.90
14359;DHT22;7263;49.418;11.064;2023-12-20T10:41:32;6.70;99.90
14359;DHT22;7263;49.418;11.064;2023-12-20T10:44:02;6.60;99.90
14359;DHT22;7263;49.418;11.064;2023-12-20T10:46:30;8.20;99.90
14359;DHT22;7263;49.418;11.064;2023-12-20T10:48:59;6.70;99.90
14359;DHT22;7263;49.418;11.064;2023-12-20T10:51:31;6.80;99.90
14359;DHT22;7263;49.418;11.064;2023-12-20T10:53:59;7.00;99.90
14359;DHT22;7263;49.418;11.064;2023-12-20T10:56:30;7.20;99.90
14359;DHT22;7263;49.418;11.064;2023-12-20T10:59:08;7.20;99.90
14359;DHT22;7263;49.418;11.064;2023-12-20T11:01:43;7.20;99.90
14359;DHT22;7263;49.418;11.064;2023-12-20T11:04:25;7.00;99.90
14359;DHT22;7263;49.418;11.064;2023-12-20T11:07:03;6.80;99.90
14359;DHT22;7263;49.418;11.064;2023-12-20T11:09:40;6.60;99.90
14359;DHT22;7263;49.418;11.064;2023-12-20T11:12:15;6.50;99.90
14359;DHT22;7263;49.418;11.064;2023-12-20T11:14:57;6.40;99.90
14359;DHT22;7263;49.418;11.064;2023-12-20T11:17:32;6.40;99.90
14359;DHT22;7263;49.418;11.064;2023-12-20T11:20:24;6.30;99.90
14359;DHT22;7263;49.418;11.064;2023-12-20T11:23:04;6.30;99.90
14359;DHT22;7263;49.418;11.064;2023-12-20T11:25:46;6.20;99.90
14359;DHT22;7263;49.418;11.064;2023-12-20T11:28:13;6.00;99.90
14359;DHT22;7263;49.418;11.064;2023-12-20T11:30:46;6.00;99.90
14359;DHT22;7263;49.418;11.064;2023-12-20T11:33:17;5.90;99.90
14359;DHT22;7263;49.418;11.064;2023-12-20T11:35:59;5.80;99.90
14359;DHT22;7263;49.418;11.064;2023-12-20T11:38:26;5.80;99.90
14359;DHT22;7263;49.418;11.064;2023-12-20T11:41:01;5.80;99.90
14359;DHT22;7263;49.418;11.064;2023-12-20T11:43:36;5.70;99.90
14359;DHT22;7263;49.418;11.064;2023-12-20T11:46:13;6.80;99.90
14359;DHT22;7263;49.418;11.064;2023-12-20T11:48:44;5.70;99.90
14359;DHT22;7263;49.418;11.064;2023-12-20T11:51:14;5.80;99.90
14359;DHT22;7263;49.418;11.064;2023-12-20T11:53:44;5.80;99.90
14359;DHT22;7263;49.418;11.064;2023-12-20T11:56:25;5.90;99.90
14359;DHT22;7263;49.418;11.064;2023-12-20T11:59:08;5.90;99.90
14359;DHT22;7263;49.418;11.064;2023-12-20T12:01:37;6.00;99.90
14359;DHT22;7263;49.418;11.064;2023-12-20T12:04:03;6.00;99.90
14359;DHT22;7263;49.418;11.064;2023-12-20T12:06:35;6.00;99.90
14359;DHT22;7263;49.418;11.064;2023-12-20T12:09:02;6.00;99.90
14359;DHT22;7263;49.418;11.064;2023-12-20T12:11:30;6.00;99.90
14359;DHT22;7263;49.418;11.064;2023-12-20T12:13:57;6.00;99.90
14359;DHT22;7263;49.418;11.064;2023-12-20T12:16:26;5.90;99.90
14359;DHT22;7263;49.418;11.064;2023-12-20T12:18:58;6.00;99.90
14359;DHT22;7263;49.418;11.064;2023-12-20T12:21:26;6.00;99.90
14359;DHT22;7263;49.418;11.064;2023-12-20T12:24:06;6.10;99.90
14359;DHT22;7263;49.418;11.064;2023-12-20T12:26:36;6.10;99.90
14359;DHT22;7263;49.418;11.064;2023-12-20T12:29:07;6.20;99.90
14359;DHT22;7263;49.418;11.064;2023-12-20T12:31:43;6.40;99.90
14359;DHT22;7263;49.418;11.064;2023-12-20T12:34:09;6.50;99.90
14359;DHT22;7263;49.418;11.064;2023-12-20T12:36:36;6.40;99.90
14359;DHT22;7263;49.418;11.064;2023-12-20T12:39:12;6.30;99.90
14359;DHT22;7263;49.418;11.064;2023-12-20T12:41:41;6.30;99.90
14359;DHT22;7263;49.418;11.064;2023-12-20T12:44:07;6.30;99.90
14359;DHT22;7263;49.418;11.064;2023-12-20T12:46:34;6.30;99.90
14359;DHT22;7263;49.418;11.064;2023-12-20T12:49:01;6.50;99.90
14359;DHT22;7263;49.418;11.064;2023-12-20T12:51:30;6.60;99.90
14359;DHT22;7263;49.418;11.064;2023-12-20T12:53:57;6.60;99.90
14359;DHT22;7263;49.418;11.064;2023-12-20T12:56:33;6.60;99.90
14359;DHT22;7263;49.418;11.064;2023-12-20T12:59:00;6.60;99.90
14359;DHT22;7263;49.418;11.064;2023-12-20T13:01:32;6.60;99.90
14359;DHT22;7263;49.418;11.064;2023-12-20T13:04:01;6.60;99.90
14359;DHT22;7263;49.418;11.064;2023-12-20T13:06:29;6.60;99.90
14359;DHT22;7263;49.418;11.064;2023-12-20T13:08:56;6.70;99.90
14359;DHT22;7263;49.418;11.064;2023-12-20T13:11:43;6.70;99.90
14359;DHT22;7263;49.418;11.064;2023-12-20T13:14:12;6.60;99.90
14359;DHT22;7263;49.418;11.064;2023-12-20T13:16:43;6.50;99.90
14359;DHT22;7263;49.418;11.064;2023-12-20T13:19:11;6.40;99.90
14359;DHT22;7263;49.418;11.064;2023-12-20T13:21:37;6.30;99.90
14359;DHT22;7263;49.418;11.064;2023-12-20T13:24:05;6.20;99.90
14359;DHT22;7263;49.418;11.064;2023-12-20T13:26:39;6.10;99.90
14359;DHT22;7263;49.418;11.064;2023-12-20T13:29:09;6.00;99.90
14359;DHT22;7263;49.418;11.064;2023-12-20T13:31:43;6.00;99.90
14359;DHT22;7263;49.418;11.064;2023-12-20T13:34:15;6.00;99.90
14359;DHT22;7263;49.418;11.064;2023-12-20T13:36:50;6.00;99.90
14359;DHT22;7263;49.418;11.064;2023-12-20T13:39:16;6.00;99.90
14359;DHT22;7263;49.418;11.064;2023-12-20T13:41:46;6.00;99.90
14359;DHT22;7263;49.418;11.064;2023-12-20T13:44:17;6.00;99.90
14359;DHT22;7263;49.418;11.064;2023-12-20T13:46:44;6.00;99.90
14359;DHT22;7263;49.418;11.064;2023-12-20T13:49:14;6.00;99.90
14359;DHT22;7263;49.418;11.064;2023-12-20T13:51:43;6.00;99.90
14359;DHT22;7263;49.418;11.064;2023-12-20T13:54:10;6.00;99.90
14359;DHT22;7263;49.418;11.064;2023-12-20T13:56:49;5.90;99.90
14359;DHT22;7263;49.418;11.064;2023-12-20T13:59:40;5.90;99.90
14359;DHT22;7263;49.418;11.064;2023-12-20T14:02:06;5.90;99.90
14359;DHT22;7263;49.418;11.064;2023-12-20T14:04:39;5.70;99.90
14359;DHT22;7263;49.418;11.064;2023-12-20T14:07:06;5.80;99.90
14359;DHT22;7263;49.418;11.064;2023-12-20T14:09:39;5.70;99.90
14359;DHT22;7263;49.418;11.064;2023-12-20T14:12:19;5.70;99.90
14359;DHT22;7263;49.418;11.064;2023-12-20T14:14:50;5.70;99.90
14359;DHT22;7263;49.418;11.064;2023-12-20T14:17:17;5.70;99.90
14359;DHT22;7263;49.418;11.064;2023-12-20T14:19:44;5.70;99.90
14359;DHT22;7263;49.418;11.064;2023-12-20T14:22:18;5.60;99.90
14359;DHT22;7263;49.418;11.064;2023-12-20T14:24:45;5.60;99.90
14359;DHT22;7263;49.418;11.064;2023-12-20T14:27:15;5.60;99.90
14359;DHT22;7263;49.418;11.064;2023-12-20T14:29:42;5.50;99.90
14359;DHT22;7263;49.418;11.064;2023-12-20T14:32:25;5.50;99.90
14359;DHT22;7263;49.418;11.064;2023-12-20T14:34:53;5.40;99.90
14359;DHT22;7263;49.418;11.064;2023-12-20T14:37:29;5.30;99.90
14359;DHT22;7263;49.418;11.064;2023-12-20T14:40:01;5.30;99.90
14359;DHT22;7263;49.418;11.064;2023-12-20T14:42:28;5.20;99.90
14359;DHT22;7263;49.418;11.064;2023-12-20T14:44:57;5.20;99.90
14359;DHT22;7263;49.418;11.064;2023-12-20T14:47:29;5.20;99.90
14359;DHT22;7263;49.418;11.064;2023-12-20T14:49:55;5.20;99.90
14359;DHT22;7263;49.418;11.064;2023-12-20T14:52:25;5.30;99.90
14359;DHT22;7263;49.418;11.064;2023-12-20T14:54:52;5.20;99.90
14359;DHT22;7263;49.418;11.064;2023-12-20T14:57:29;5.20;99.90
14359;DHT22;7263;49.418;11.064;2023-12-20T14:59:59;5.20;99.90
14359;DHT22;7263;49.418;11.064;2023-12-20T15:02:27;5.20;99.90
14359;DHT22;7263;49.418;11.064;2023-12-20T15:05:06;5.10;99.90
14359;DHT22;7263;49.418;11.064;2023-12-20T15:07:33;5.20;99.90
14359;DHT22;7263;49.418;11.064;2023-12-20T15:10:00;5.10;99.90
14359;DHT22;7263;49.418;11.064;2023-12-20T15:12:29;5.10;99.90
14359;DHT22;7263;49.418;11.064;2023-12-20T15:14:56;5.20;99.90
14359;DHT22;7263;49.418;11.064;2023-12-20T15:17:23;5.20;99.90
14359;DHT22;7263;49.418;11.064;2023-12-20T15:19:52;5.20;99.90
14359;DHT22;7263;49.418;11.064;2023-12-20T15:22:22;5.20;99.90
14359;DHT22;7263;49.418;11.064;2023-12-20T15:24:49;5.20;99.90
14359;DHT22;7263;49.418;11.064;2023-12-20T15:27:17;5.20;99.90
14359;DHT22;7263;49.418;11.064;2023-12-20T15:29:47;5.10;99.90
14359;DHT22;7263;49.418;11.064;2023-12-20T15:32:18;5.10;99.90
14359;DHT22;7263;49.418;11.064;2023-12-20T15:35:06;5.10;99.90
14359;DHT22;7263;49.418;11.064;2023-12-20T15:37:38;5.00;99.90
14359;DHT22;7263;49.418;11.064;2023-12-20T15:40:08;5.10;99.90
14359;DHT22;7263;49.418;11.064;2023-12-20T15:42:36;5.00;99.90
14359;DHT22;7263;49.418;11.064;2023-12-20T15:45:14;5.00;99.90
14359;DHT22;7263;49.418;11.064;2023-12-20T15:47:43;5.00;99.90
14359;DHT22;7263;49.418;11.064;2023-12-20T15:50:17;5.00;99.90
14359;DHT22;7263;49.418;11.064;2023-12-20T15:52:46;5.00;99.90
14359;DHT22;7263;49.418;11.064;2023-12-20T15:55:16;5.00;99.90
14359;DHT22;7263;49.418;11.064;2023-12-20T15:57:45;5.00;99.90
14359;DHT22;7263;49.418;11.064;2023-12-20T16:00:20;5.00;99.90
14359;DHT22;7263;49.418;11.064;2023-12-20T16:02:49;5.00;99.90
14359;DHT22;7263;49.418;11.064;2023-12-20T16:05:18;5.00;99.90
14359;DHT22;7263;49.418;11.064;2023-12-20T16:07:47;5.00;99.90
14359;DHT22;7263;49.418;11.064;2023-12-20T16:10:20;5.00;99.90